createdAt,value
2017-06-13T00:01:28.137Z,13.40
2017-06-13T00:03:56.447Z,13.50
2017-06-13T00:06:23.968Z,13.40
2017-06-13T00:08:52.277Z,13.50
2017-06-13T00:11:19.803Z,13.40
2017-06-13T00:13:48.121Z,13.40
2017-06-13T00:16:15.649Z,13.40
2017-06-13T00:18:43.175Z,13.40
2017-06-13T00:21:10.725Z,13.30
2017-06-13T00:23:38.245Z,13.30
2017-06-13T00:26:05.795Z,13.20
2017-06-13T00:28:33.312Z,13.10
2017-06-13T00:31:00.855Z,13.00
2017-06-13T00:33:28.379Z,13.00
2017-06-13T00:35:55.938Z,13.00
2017-06-13T00:38:23.459Z,12.90
2017-06-13T00:40:50.986Z,12.70
2017-06-13T00:43:18.533Z,12.50
2017-06-13T00:45:46.054Z,12.30
2017-06-13T00:48:14.358Z,12.10
2017-06-13T00:50:41.879Z,12.10
2017-06-13T00:53:09.423Z,12.10
2017-06-13T00:55:36.942Z,12.00
2017-06-13T00:58:04.488Z,11.90
2017-06-13T01:00:32.018Z,11.90
2017-06-13T01:02:59.543Z,11.90
2017-06-13T01:05:27.112Z,12.00
2017-06-13T01:07:54.636Z,11.80
2017-06-13T01:10:22.175Z,11.80
2017-06-13T01:12:50.325Z,11.70
2017-06-13T01:15:18.626Z,11.50
2017-06-13T01:17:46.153Z,11.50
2017-06-13T01:20:13.699Z,11.60
2017-06-13T01:22:41.225Z,11.70
2017-06-13T01:25:08.755Z,11.70
2017-06-13T01:27:36.298Z,11.70
2017-06-13T01:30:04.592Z,11.80
2017-06-13T01:32:32.146Z,11.80
2017-06-13T01:34:59.664Z,11.90
2017-06-13T01:37:27.211Z,12.00
2017-06-13T01:39:54.736Z,12.20
2017-06-13T01:42:22.264Z,12.30
2017-06-13T01:44:50.582Z,12.20
2017-06-13T01:47:18.112Z,12.20
2017-06-13T01:49:46.423Z,12.00
2017-06-13T01:52:13.952Z,12.00
2017-06-13T01:54:41.591Z,11.80
2017-06-13T01:57:09.881Z,11.50
2017-06-13T01:59:37.405Z,11.50
2017-06-13T02:02:04.953Z,11.50
2017-06-13T02:04:32.479Z,11.50
2017-06-13T02:07:00.026Z,11.40
2017-06-13T02:09:27.551Z,11.40
2017-06-13T02:11:55.070Z,11.40
2017-06-13T02:14:22.614Z,11.40
2017-06-13T02:16:50.156Z,11.40
2017-06-13T02:19:18.464Z,11.30
2017-06-13T02:21:45.987Z,11.30
2017-06-13T02:24:14.302Z,11.20
2017-06-13T02:26:41.822Z,11.20
2017-06-13T02:29:10.111Z,11.20
2017-06-13T02:31:37.654Z,11.20
2017-06-13T02:34:05.943Z,11.30
2017-06-13T02:36:33.502Z,11.30
2017-06-13T02:39:01.018Z,11.40
2017-06-13T02:41:28.539Z,11.40
2017-06-13T02:43:56.084Z,11.40
2017-06-13T02:46:23.608Z,11.40
2017-06-13T02:48:51.158Z,11.30
2017-06-13T02:51:18.672Z,11.20
2017-06-13T02:53:46.236Z,11.20
2017-06-13T02:56:13.750Z,11.00
2017-06-13T02:58:42.041Z,10.80
2017-06-13T03:01:09.587Z,10.80
2017-06-13T03:03:37.873Z,10.70
2017-06-13T03:06:06.186Z,10.70
2017-06-13T03:08:33.710Z,10.70
2017-06-13T03:11:02.015Z,10.80
2017-06-13T03:13:29.534Z,10.80
2017-06-13T03:15:57.849Z,10.90
2017-06-13T03:18:25.391Z,10.90
2017-06-13T03:20:52.915Z,11.00
2017-06-13T03:23:20.458Z,11.00
2017-06-13T03:25:47.972Z,11.00
2017-06-13T03:28:15.512Z,11.00
2017-06-13T03:30:43.841Z,11.20
2017-06-13T03:33:11.403Z,11.20
2017-06-13T03:35:39.272Z,11.20
2017-06-13T03:38:07.595Z,11.40
2017-06-13T03:40:35.157Z,11.40
2017-06-13T03:43:02.683Z,11.50
2017-06-13T03:45:30.244Z,11.50
2017-06-13T03:47:57.769Z,11.60
2017-06-13T03:50:27.211Z,11.70
2017-06-13T03:52:54.749Z,11.90
2017-06-13T03:55:22.279Z,12.00
2017-06-13T03:57:49.820Z,12.00
2017-06-13T04:00:17.357Z,12.10
2017-06-13T04:02:45.672Z,12.30
2017-06-13T04:05:13.191Z,12.30
2017-06-13T04:07:41.478Z,12.50
2017-06-13T04:10:09.796Z,12.60
2017-06-13T04:12:37.321Z,12.60
2017-06-13T04:15:04.864Z,12.60
2017-06-13T04:17:33.163Z,12.90
2017-06-13T04:20:00.713Z,12.90
2017-06-13T04:22:28.227Z,13.00
2017-06-13T04:24:55.749Z,13.90
2017-06-13T04:27:23.303Z,18.30
2017-06-13T04:29:50.828Z,22.60
2017-06-13T04:32:19.139Z,28.10
2017-06-13T04:34:46.816Z,28.00
2017-06-13T04:37:14.363Z,29.90
2017-06-13T04:39:41.886Z,30.40
2017-06-13T04:42:10.195Z,30.20
2017-06-13T04:44:37.720Z,30.20
2017-06-13T04:47:05.275Z,30.20
2017-06-13T04:49:33.578Z,32.50
2017-06-13T04:52:01.094Z,32.40
2017-06-13T04:54:28.628Z,33.00
2017-06-13T04:56:56.155Z,33.50
2017-06-13T04:59:23.705Z,33.90
2017-06-13T05:01:52.001Z,33.80
2017-06-13T05:04:19.547Z,33.70
2017-06-13T05:06:47.072Z,33.80
2017-06-13T05:09:14.642Z,33.80
2017-06-13T05:11:42.934Z,36.30
2017-06-13T05:14:10.452Z,36.20
2017-06-13T05:16:37.993Z,36.20
2017-06-13T05:19:05.514Z,36.30
2017-06-13T05:21:33.058Z,35.90
2017-06-13T05:24:01.344Z,36.60
2017-06-13T05:26:29.664Z,36.20
2017-06-13T05:28:57.221Z,36.10
2017-06-13T05:31:24.786Z,36.30
2017-06-13T05:33:52.306Z,36.30
2017-06-13T05:36:19.822Z,36.70
2017-06-13T05:38:47.362Z,36.90
2017-06-13T05:41:14.875Z,36.80
2017-06-13T05:43:43.183Z,36.40
2017-06-13T05:46:10.710Z,36.30
2017-06-13T05:48:39.010Z,36.90
2017-06-13T05:51:06.525Z,36.90
2017-06-13T05:53:34.055Z,37.00
2017-06-13T05:56:01.591Z,37.00
2017-06-13T05:58:29.114Z,36.20
2017-06-13T06:00:57.423Z,38.80
2017-06-13T06:03:24.934Z,38.70
2017-06-13T06:05:52.473Z,38.80
2017-06-13T06:08:19.977Z,35.80
2017-06-13T06:10:47.532Z,35.70
2017-06-13T06:13:15.054Z,36.90
2017-06-13T06:15:42.571Z,37.50
2017-06-13T06:18:10.106Z,38.10
2017-06-13T06:20:37.630Z,38.50
2017-06-13T06:23:05.175Z,38.30
2017-06-13T06:25:32.685Z,38.30
2017-06-13T06:28:00.234Z,38.00
2017-06-13T06:30:28.530Z,37.70
2017-06-13T06:32:56.086Z,37.70
2017-06-13T06:35:23.599Z,37.90
2017-06-13T06:37:51.106Z,38.50
2017-06-13T06:40:18.663Z,38.60
2017-06-13T06:42:46.245Z,38.80
2017-06-13T06:45:13.801Z,39.20
2017-06-13T06:47:41.314Z,37.30
2017-06-13T06:50:09.622Z,35.00
2017-06-13T06:52:37.167Z,35.00
2017-06-13T06:55:04.725Z,34.40
2017-06-13T06:57:32.246Z,33.80
2017-06-13T06:59:59.769Z,32.90
2017-06-13T07:02:27.331Z,31.70
2017-06-13T07:04:54.927Z,30.50
2017-06-13T07:07:22.479Z,28.80
2017-06-13T07:09:50.013Z,28.30
2017-06-13T07:12:18.082Z,27.60
2017-06-13T07:14:45.595Z,26.30
2017-06-13T07:17:13.914Z,24.00
2017-06-13T07:19:41.436Z,23.90
2017-06-13T07:22:09.727Z,24.30
2017-06-13T07:24:37.270Z,24.30
2017-06-13T07:27:05.587Z,25.30
2017-06-13T07:29:33.129Z,25.30
2017-06-13T07:32:00.651Z,26.20
2017-06-13T07:34:28.776Z,26.50
2017-06-13T07:36:56.294Z,25.90
2017-06-13T07:39:24.614Z,26.00
2017-06-13T07:41:52.126Z,26.00
2017-06-13T07:44:20.422Z,25.60
2017-06-13T07:46:47.970Z,25.60
2017-06-13T07:49:16.268Z,25.50
2017-06-13T07:51:43.830Z,25.50
2017-06-13T07:54:11.343Z,25.80
2017-06-13T07:56:38.881Z,26.60
2017-06-13T07:59:06.411Z,27.20
2017-06-13T08:01:34.692Z,27.40
2017-06-13T08:04:02.250Z,27.50
2017-06-13T08:06:29.814Z,27.40
2017-06-13T08:08:57.350Z,27.90
2017-06-13T08:11:24.875Z,27.10
2017-06-13T08:13:52.425Z,26.40
2017-06-13T08:16:19.949Z,25.90
2017-06-13T08:18:47.502Z,25.90
2017-06-13T08:21:15.022Z,26.40
2017-06-13T08:23:43.342Z,27.00
2017-06-13T08:26:10.862Z,27.00
2017-06-13T08:28:39.150Z,26.80
2017-06-13T08:31:06.701Z,26.80
2017-06-13T08:33:34.988Z,27.60
2017-06-13T08:36:02.551Z,27.60
2017-06-13T08:38:30.077Z,27.90
2017-06-13T08:40:57.627Z,28.50
2017-06-13T08:43:25.189Z,28.70
2017-06-13T08:45:52.766Z,28.60
2017-06-13T08:48:21.047Z,27.10
2017-06-13T08:50:49.339Z,26.00
2017-06-13T08:53:16.882Z,26.00
2017-06-13T08:55:45.172Z,26.70
2017-06-13T08:58:12.730Z,26.70
2017-06-13T09:00:40.258Z,26.50
2017-06-13T09:03:07.798Z,26.80
2017-06-13T09:05:35.315Z,26.80
2017-06-13T09:08:02.854Z,26.50
2017-06-13T09:10:31.149Z,27.10
2017-06-13T09:12:58.707Z,27.10
2017-06-13T09:15:26.234Z,27.30
2017-06-13T09:17:53.751Z,27.30
2017-06-13T09:20:21.297Z,26.10
2017-06-13T09:22:48.952Z,26.40
2017-06-13T09:25:16.490Z,26.80
2017-06-13T09:27:44.774Z,27.20
2017-06-13T09:30:12.339Z,27.20
2017-06-13T09:32:39.863Z,27.60
2017-06-13T09:35:07.472Z,26.50
2017-06-13T09:37:35.018Z,26.80
2017-06-13T09:40:02.538Z,27.20
2017-06-13T09:42:30.090Z,27.70
2017-06-13T09:44:57.613Z,27.50
2017-06-13T09:47:25.165Z,27.10
2017-06-13T09:49:52.686Z,27.40
2017-06-13T09:52:20.978Z,27.30
2017-06-13T09:54:48.531Z,27.20
2017-06-13T09:57:16.811Z,28.80
2017-06-13T09:59:44.349Z,28.80
2017-06-13T10:02:12.656Z,28.60
2017-06-13T10:04:40.202Z,28.50
2017-06-13T10:07:08.491Z,28.40
2017-06-13T10:09:36.047Z,28.40
2017-06-13T10:12:03.575Z,27.70
2017-06-13T10:14:31.091Z,27.40
2017-06-13T10:16:58.626Z,26.80
2017-06-13T10:19:26.151Z,27.70
2017-06-13T10:21:54.462Z,28.20
2017-06-13T10:24:21.991Z,28.20
2017-06-13T10:26:50.304Z,27.60
2017-06-13T10:29:17.826Z,27.60
2017-06-13T10:31:46.167Z,27.10
2017-06-13T10:34:13.699Z,27.10
2017-06-13T10:36:41.227Z,26.40
2017-06-13T10:39:09.541Z,26.80
2017-06-13T10:41:37.089Z,26.70
2017-06-13T10:44:04.637Z,27.20
2017-06-13T10:46:32.164Z,28.00
2017-06-13T10:48:59.716Z,28.20
2017-06-13T10:51:27.241Z,27.90
2017-06-13T10:53:54.794Z,27.30
2017-06-13T10:56:22.314Z,27.10
2017-06-13T10:58:50.611Z,27.30
2017-06-13T11:01:18.167Z,27.40
2017-06-13T11:03:45.694Z,27.10
2017-06-13T11:06:13.246Z,27.50
2017-06-13T11:08:40.774Z,27.70
2017-06-13T11:11:08.319Z,27.90
2017-06-13T11:13:35.830Z,28.20
2017-06-13T11:16:03.382Z,28.50
2017-06-13T11:18:30.907Z,28.40
2017-06-13T11:20:58.425Z,28.10
2017-06-13T11:23:26.734Z,27.90
2017-06-13T11:25:54.257Z,27.90
2017-06-13T11:28:22.562Z,27.40
2017-06-13T11:30:50.075Z,27.40
2017-06-13T11:33:17.617Z,27.10
2017-06-13T11:35:45.146Z,27.40
2017-06-13T11:38:12.695Z,27.60
2017-06-13T11:40:40.242Z,27.60
2017-06-13T11:43:07.764Z,27.80
2017-06-13T11:45:35.382Z,27.40
2017-06-13T11:48:02.905Z,27.50
2017-06-13T11:50:31.223Z,27.50
2017-06-13T11:52:58.745Z,27.40
2017-06-13T11:55:26.295Z,27.50
2017-06-13T11:57:53.809Z,27.70
2017-06-13T12:00:21.335Z,27.10
2017-06-13T12:02:48.883Z,27.10
2017-06-13T12:05:16.990Z,26.70
2017-06-13T12:07:44.527Z,27.10
2017-06-13T12:10:12.050Z,27.30
2017-06-13T12:12:40.358Z,27.90
2017-06-13T12:15:07.884Z,27.90
2017-06-13T12:17:36.204Z,27.80
2017-06-13T12:20:03.721Z,27.90
2017-06-13T12:22:32.021Z,27.30
2017-06-13T12:24:59.596Z,27.30
2017-06-13T12:27:27.220Z,27.60
2017-06-13T12:29:55.541Z,27.60
2017-06-13T12:32:23.879Z,27.60
2017-06-13T12:34:52.208Z,27.10
2017-06-13T12:37:19.729Z,27.10
2017-06-13T12:39:47.241Z,27.80
2017-06-13T12:42:14.906Z,27.50
2017-06-13T12:44:42.445Z,26.90
2017-06-13T12:47:10.000Z,26.90
2017-06-13T12:49:37.545Z,27.20
2017-06-13T12:52:05.076Z,27.60
2017-06-13T12:54:32.638Z,27.70
2017-06-13T12:57:00.199Z,27.80
2017-06-13T12:59:27.725Z,27.40
2017-06-13T13:01:55.246Z,27.30
2017-06-13T13:04:22.799Z,27.10
2017-06-13T13:06:50.320Z,27.20
2017-06-13T13:09:17.878Z,27.20
2017-06-13T13:11:46.168Z,28.20
2017-06-13T13:14:14.491Z,28.60
2017-06-13T13:16:42.026Z,28.60
2017-06-13T13:19:09.589Z,28.30
2017-06-13T13:21:37.105Z,28.60
2017-06-13T13:24:04.630Z,27.60
2017-06-13T13:26:32.176Z,27.70
2017-06-13T13:28:59.703Z,27.70
2017-06-13T13:31:27.246Z,28.10
2017-06-13T13:33:55.562Z,28.10
2017-06-13T13:36:23.108Z,28.00
2017-06-13T13:38:50.630Z,27.90
2017-06-13T13:41:18.183Z,27.50
2017-06-13T13:43:45.713Z,27.20
2017-06-13T13:46:13.250Z,27.40
2017-06-13T13:48:40.796Z,27.10
2017-06-13T13:51:08.313Z,27.20
2017-06-13T13:53:35.869Z,27.20
2017-06-13T13:56:03.392Z,27.70
2017-06-13T13:58:30.951Z,27.70
2017-06-13T14:00:58.474Z,27.50
2017-06-13T14:03:26.789Z,27.70
2017-06-13T14:05:54.323Z,27.70
2017-06-13T14:08:21.856Z,28.00
2017-06-13T14:10:49.405Z,28.30
2017-06-13T14:13:16.930Z,28.20
2017-06-13T14:15:44.474Z,28.00
2017-06-13T14:18:12.009Z,28.20
2017-06-13T14:20:40.332Z,28.40
2017-06-13T14:23:07.876Z,28.30
2017-06-13T14:25:35.407Z,28.00
2017-06-13T14:28:02.947Z,27.80
2017-06-13T14:30:31.242Z,27.70
2017-06-13T14:32:58.786Z,27.70
2017-06-13T14:35:27.118Z,27.20
2017-06-13T14:37:54.662Z,27.10
2017-06-13T14:40:22.196Z,26.70
2017-06-13T14:42:49.714Z,26.20
2017-06-13T14:45:17.258Z,26.00
2017-06-13T14:47:44.777Z,26.00
2017-06-13T14:50:12.330Z,25.90
2017-06-13T14:52:39.849Z,26.10
2017-06-13T14:55:07.414Z,25.70
2017-06-13T14:57:34.950Z,25.30
2017-06-13T15:00:02.463Z,25.50
2017-06-13T15:02:30.871Z,26.00
2017-06-13T15:04:58.394Z,26.00
2017-06-13T15:07:26.703Z,27.00
2017-06-13T15:09:54.223Z,27.00
2017-06-13T15:12:22.552Z,27.50
2017-06-13T15:14:50.078Z,27.50
2017-06-13T15:17:17.608Z,27.00
2017-06-13T15:19:45.162Z,26.60
2017-06-13T15:22:12.682Z,26.50
2017-06-13T15:24:40.227Z,26.10
2017-06-13T15:27:07.748Z,25.70
2017-06-13T15:29:36.057Z,26.40
2017-06-13T15:32:03.579Z,26.40
2017-06-13T15:34:31.125Z,26.10
2017-06-13T15:36:58.646Z,25.30
2017-06-13T15:39:26.163Z,25.00
2017-06-13T15:41:54.474Z,25.30
2017-06-13T15:44:21.995Z,25.20
2017-06-13T15:46:50.315Z,25.30
2017-06-13T15:49:18.742Z,25.30
2017-06-13T15:51:46.284Z,25.30
2017-06-13T15:54:13.805Z,25.00
2017-06-13T15:56:41.386Z,24.60
2017-06-13T15:59:09.074Z,24.30
2017-06-13T16:01:36.591Z,24.30
2017-06-13T16:04:04.138Z,24.00
2017-06-13T16:06:31.660Z,24.10
2017-06-13T16:08:59.996Z,24.10
2017-06-13T16:11:27.529Z,24.10
2017-06-13T16:13:55.085Z,24.10
2017-06-13T16:16:22.618Z,24.00
2017-06-13T16:18:50.171Z,24.10
2017-06-13T16:21:17.714Z,24.20
2017-06-13T16:23:45.230Z,24.50
2017-06-13T16:26:12.775Z,24.60
2017-06-13T16:28:40.310Z,24.50
2017-06-13T16:31:07.890Z,24.20
2017-06-13T16:33:35.415Z,23.90
2017-06-13T16:36:02.979Z,23.80
2017-06-13T16:38:30.506Z,24.00
2017-06-13T16:40:58.030Z,24.40
2017-06-13T16:43:25.562Z,24.70
2017-06-13T16:45:53.110Z,25.10
2017-06-13T16:48:20.654Z,24.90
2017-06-13T16:50:48.190Z,24.50
2017-06-13T16:53:15.733Z,24.30
2017-06-13T16:55:43.263Z,24.50
2017-06-13T16:58:11.586Z,24.30
2017-06-13T17:00:39.122Z,24.30
2017-06-13T17:03:06.642Z,24.10
2017-06-13T17:05:34.190Z,24.10
2017-06-13T17:08:01.729Z,24.00
2017-06-13T17:10:29.267Z,23.90
2017-06-13T17:12:56.782Z,23.60
2017-06-13T17:15:25.148Z,23.40
2017-06-13T17:17:52.669Z,23.30
2017-06-13T17:20:20.223Z,22.90
2017-06-13T17:22:47.760Z,22.70
2017-06-13T17:25:15.294Z,22.70
2017-06-13T17:27:43.614Z,22.90
2017-06-13T17:30:11.142Z,22.80
2017-06-13T17:32:39.456Z,22.90
2017-06-13T17:35:06.972Z,22.90
2017-06-13T17:37:35.298Z,22.90
2017-06-13T17:40:02.819Z,22.80
2017-06-13T17:42:30.383Z,22.90
2017-06-13T17:44:57.936Z,22.80
2017-06-13T17:47:25.475Z,22.50
2017-06-13T17:49:53.797Z,21.80
2017-06-13T17:52:21.341Z,21.80
2017-06-13T17:54:48.898Z,21.60
2017-06-13T17:57:16.430Z,21.50
2017-06-13T17:59:43.977Z,21.60
2017-06-13T18:02:11.506Z,21.70
2017-06-13T18:04:39.090Z,21.80
2017-06-13T18:07:06.723Z,21.90
2017-06-13T18:09:34.267Z,22.00
2017-06-13T18:12:01.809Z,22.00
2017-06-13T18:14:29.341Z,22.00
2017-06-13T18:16:56.894Z,22.00
2017-06-13T18:19:24.422Z,21.90
2017-06-13T18:21:51.970Z,21.70
2017-06-13T18:24:19.510Z,21.50
2017-06-13T18:26:47.030Z,21.40
2017-06-13T18:29:14.717Z,21.30
2017-06-13T18:31:43.010Z,21.00
2017-06-13T18:34:10.567Z,20.90
2017-06-13T18:36:38.093Z,20.90
2017-06-13T18:39:05.633Z,20.80
2017-06-13T18:41:33.166Z,20.60
2017-06-13T18:44:00.727Z,20.50
2017-06-13T18:46:28.248Z,20.40
2017-06-13T18:48:56.542Z,20.10
2017-06-13T18:51:24.093Z,20.10
2017-06-13T18:53:51.618Z,19.90
2017-06-13T18:56:19.167Z,19.90
2017-06-13T18:58:46.694Z,19.80
2017-06-13T19:01:14.254Z,19.60
2017-06-13T19:03:41.775Z,19.50
2017-06-13T19:06:15.836Z,19.40
2017-06-13T19:08:43.367Z,19.20
2017-06-13T19:11:10.927Z,19.10
2017-06-13T19:13:38.449Z,19.00
2017-06-13T19:16:06.753Z,18.90
2017-06-13T19:18:34.305Z,18.90
2017-06-13T19:21:08.706Z,18.90
2017-06-13T19:23:37.035Z,18.70
2017-06-13T19:26:05.465Z,18.70
2017-06-13T19:28:33.774Z,18.50
2017-06-13T19:31:01.326Z,18.50
2017-06-13T19:33:28.907Z,18.50
2017-06-13T19:35:57.341Z,18.30
2017-06-13T19:38:25.667Z,18.10
2017-06-13T19:40:53.205Z,18.10
2017-06-13T19:43:20.745Z,17.90
2017-06-13T19:45:49.060Z,18.10
2017-06-13T19:48:16.582Z,18.10
2017-06-13T19:50:44.946Z,18.30
2017-06-13T19:53:12.467Z,18.30
2017-06-13T19:55:40.033Z,18.20
2017-06-13T19:58:07.565Z,18.10
2017-06-13T20:00:35.113Z,18.00
2017-06-13T20:03:02.642Z,17.90
2017-06-13T20:05:30.173Z,17.90
2017-06-13T20:07:57.722Z,17.80
2017-06-13T20:10:25.266Z,17.70
2017-06-13T20:12:52.826Z,17.70
2017-06-13T20:15:20.370Z,17.70
2017-06-13T20:17:51.621Z,17.60
2017-06-13T20:20:19.156Z,17.60
2017-06-13T20:22:46.706Z,17.50
2017-06-13T20:25:14.240Z,17.40
2017-06-13T20:27:41.806Z,17.40
2017-06-13T20:30:09.333Z,17.30
2017-06-13T20:32:36.862Z,17.30
2017-06-13T20:35:27.463Z,17.10
2017-06-13T20:37:54.990Z,17.00
2017-06-13T20:40:22.546Z,16.80
2017-06-13T20:42:50.841Z,16.70
2017-06-13T20:45:18.406Z,16.60
2017-06-13T20:47:45.938Z,16.60
2017-06-13T20:50:14.285Z,16.40
2017-06-13T20:52:41.813Z,16.40
2017-06-13T20:55:09.339Z,16.40
2017-06-13T20:57:37.653Z,16.20
2017-06-13T21:00:05.636Z,16.20
2017-06-13T21:02:33.182Z,16.10
2017-06-13T21:05:00.708Z,16.10
2017-06-13T21:07:29.039Z,16.00
2017-06-13T21:09:56.560Z,16.00
2017-06-13T21:12:24.108Z,16.00
2017-06-13T21:14:52.398Z,16.00
2017-06-13T21:17:19.945Z,16.00
2017-06-13T21:19:48.238Z,15.90
2017-06-13T21:22:15.791Z,15.90
2017-06-13T21:24:43.339Z,15.80
2017-06-13T21:27:11.629Z,15.70
2017-06-13T21:29:39.183Z,15.70
2017-06-13T21:32:06.721Z,15.70
2017-06-13T21:34:35.030Z,15.60
2017-06-13T21:37:02.557Z,15.50
2017-06-13T21:39:30.885Z,15.30
2017-06-13T21:41:58.415Z,15.30
2017-06-13T21:44:25.938Z,15.30
2017-06-13T21:46:53.507Z,15.30
2017-06-13T21:49:21.025Z,15.40
2017-06-13T21:51:48.577Z,15.40
2017-06-13T21:54:16.112Z,15.40
2017-06-13T21:56:43.662Z,15.50
2017-06-13T21:59:11.198Z,15.50
2017-06-13T22:01:38.743Z,15.50
2017-06-13T22:04:06.267Z,15.40
2017-06-13T22:06:33.816Z,15.30
2017-06-13T22:09:01.352Z,15.30
2017-06-13T22:11:28.883Z,15.20
2017-06-13T22:13:56.436Z,15.20
2017-06-13T22:16:23.969Z,15.20
2017-06-13T22:18:51.514Z,15.20
2017-06-13T22:21:19.144Z,15.10
2017-06-13T22:23:47.452Z,15.20
2017-06-13T22:26:14.972Z,15.20
2017-06-13T22:28:43.286Z,15.20
2017-06-13T22:31:13.857Z,15.20
2017-06-13T22:33:41.478Z,15.20
2017-06-13T22:36:09.010Z,15.20
2017-06-13T22:38:37.303Z,15.20
2017-06-13T22:41:04.848Z,15.20
2017-06-13T22:43:32.369Z,15.20
2017-06-13T22:45:59.917Z,15.20
2017-06-13T22:48:27.438Z,15.20
2017-06-13T22:50:54.980Z,15.10
2017-06-13T22:53:23.041Z,15.10
2017-06-13T22:55:52.102Z,15.10
2017-06-13T22:58:19.627Z,15.00
2017-06-13T23:00:47.186Z,15.00
2017-06-13T23:03:14.751Z,14.90
2017-06-13T23:05:42.280Z,14.90
2017-06-13T23:08:10.586Z,14.90
2017-06-13T23:10:38.101Z,14.80
2017-06-13T23:13:06.408Z,14.60
2017-06-13T23:15:33.930Z,14.60
2017-06-13T23:18:01.473Z,14.60
2017-06-13T23:20:29.001Z,14.50
2017-06-13T23:22:56.560Z,14.40
2017-06-13T23:25:24.083Z,14.40
2017-06-13T23:27:52.372Z,14.40
2017-06-13T23:30:19.916Z,14.30
2017-06-13T23:32:48.203Z,14.20
2017-06-13T23:35:15.742Z,14.20
2017-06-13T23:37:44.034Z,14.10
2017-06-13T23:40:12.349Z,14.00
2017-06-13T23:42:39.870Z,14.00
2017-06-13T23:45:08.181Z,14.00
2017-06-13T23:47:35.704Z,14.00
2017-06-13T23:50:04.030Z,14.00
2017-06-13T23:52:31.554Z,13.90
2017-06-13T23:54:59.078Z,13.90
2017-06-13T23:57:26.632Z,13.80
2017-06-13T23:59:54.158Z,13.70
